Check out our new BloomSky Weather System.

Active alerts


No alerts


Thunder radar  blitzortung!


Rain radar more information rain snow radar


Visit our other weather sites:

Template documentation
and downloads

And another site



Weather Underground History page Text

Daily Summary for August 8, 2017 Units:  English    Metric   Both
« Previous Day
Next Day »
Daily Weekly Monthly Yearly Custom
  High: Low: Average:
Temperature: 87.3 °F 72.9 °F 78.2 °F
Dew Point: 79.5 °F 72.5 °F 75.7 °F
Humidity: 100 % 74 % 93 %
Wind Speed: 6.0 mph 0.0 mph 1.2 mph
Wind Gust: 13.0 mph - -
Wind:- - SW
Pressure: 29.97 in 29.88 in -
Precipitation: 3.66 in    
Historical Graphs
 
 
Tabular Data for August 8, 2017
Time Temperature Dew Point Pressure Wind Wind Speed Wind Gust Humidity Rainfall Rate (Hourly)
00:04 75.9 °F 74.3 °F 29.96 in NNW 4.0 mph 7.0 mph 95 % 0.07 in
00:09 75.2 °F 73.9 °F 29.96 in NW 2.0 mph 13.0 mph 96 % 0.25 in
00:14 74.8 °F 73.9 °F 29.96 in NW 2.0 mph 13.0 mph 97 % 0.54 in
00:19 74.5 °F 73.6 °F 29.96 in NW 2.0 mph 13.0 mph 97 % 0.79 in
00:24 73.9 °F 73.0 °F 29.95 in NW 4.0 mph 9.0 mph 97 % 1.04 in
00:29 73.6 °F 73.0 °F 29.95 in NNW 3.0 mph 7.0 mph 98 % 1.23 in
00:35 73.4 °F 72.9 °F 29.95 in Calm   7.0 mph 98 % 1.39 in
00:40 73.2 °F 72.7 °F 29.94 in NW 1.0 mph 7.0 mph 98 % 1.45 in
00:45 73.2 °F 72.9 °F 29.94 in NW 1.0 mph 7.0 mph 99 % 1.53 in
00:50 73.0 °F 72.7 °F 29.94 in NW 3.0 mph 3.0 mph 99 % 1.67 in
00:55 73.0 °F 72.7 °F 29.94 in ENE 1.0 mph 5.0 mph 99 % 1.81 in
01:00 72.9 °F 72.5 °F 29.94 in Calm   5.0 mph 99 % 1.78 in
01:05 72.9 °F 72.5 °F 29.94 in Calm   5.0 mph 99 % 1.62 in
01:10 72.9 °F 72.5 °F 29.94 in East 1.0 mph 3.0 mph 99 % 1.33 in
01:15 72.9 °F 72.5 °F 29.95 in SE 2.0 mph 3.0 mph 99 % 1.08 in
01:20 72.9 °F 72.5 °F 29.95 in SSE 2.0 mph 4.0 mph 99 % 0.86 in
01:25 73.0 °F 72.7 °F 29.95 in SSE 2.0 mph 5.0 mph 99 % 0.67 in
01:30 73.0 °F 72.7 °F 29.95 in Calm   5.0 mph 99 % 0.55 in
01:31 73.0 °F 72.7 °F 29.94 in Calm   5.0 mph 99 % 0.55 in
01:36 73.0 °F 72.7 °F 29.94 in Calm   5.0 mph 99 % 0.51 in
01:41 73.0 °F 72.7 °F 29.94 in Calm   3.0 mph 99 % 0.44 in
01:46 73.2 °F 72.9 °F 29.94 in Calm   2.0 mph 99 % 0.36 in
01:51 73.2 °F 72.9 °F 29.94 in Calm   1.0 mph 99 % 0.34 in
01:56 73.0 °F 72.7 °F 29.93 in Calm   1.0 mph 99 % 0.42 in
02:01 73.2 °F 72.9 °F 29.93 in Calm   1.0 mph 99 % 0.53 in
02:06 73.2 °F 72.9 °F 29.93 in Calm   1.0 mph 99 % 0.62 in
02:11 73.2 °F 72.9 °F 29.93 in SSE 1.0 mph 1.0 mph 99 % 0.75 in
02:16 73.2 °F 73.2 °F 29.93 in NNW 1.0 mph 3.0 mph 100 % 0.82 in
02:21 73.2 °F 73.2 °F 29.93 in NW 1.0 mph 3.0 mph 100 % 0.90 in
02:26 73.2 °F 73.2 °F 29.93 in East 1.0 mph 3.0 mph 100 % 0.97 in
02:31 73.4 °F 73.4 °F 29.93 in SE 1.0 mph 3.0 mph 100 % 1.06 in
02:36 73.6 °F 73.6 °F 29.93 in Calm   2.0 mph 100 % 1.14 in
02:41 73.4 °F 73.4 °F 29.92 in Calm   2.0 mph 100 % 1.19 in
02:46 73.4 °F 73.4 °F 29.92 in SE 2.0 mph 2.0 mph 100 % 1.21 in
02:47 73.4 °F 73.4 °F 29.92 in SE 1.0 mph 2.0 mph 100 % 1.21 in
02:52 73.4 °F 73.4 °F 29.92 in SE 3.0 mph 3.0 mph 100 % 1.12 in
02:57 73.6 °F 73.6 °F 29.92 in SSE 1.0 mph 6.0 mph 100 % 1.06 in
03:02 73.6 °F 73.6 °F 29.93 in SSE 4.0 mph 6.0 mph 100 % 0.96 in
03:07 73.6 °F 73.6 °F 29.92 in ESE 2.0 mph 6.0 mph 100 % 0.86 in
03:12 73.6 °F 73.6 °F 29.92 in SE 3.0 mph 5.0 mph 100 % 0.76 in
03:17 73.8 °F 73.8 °F 29.92 in South 1.0 mph 5.0 mph 100 % 0.69 in
03:22 73.8 °F 73.8 °F 29.93 in South 2.0 mph 5.0 mph 100 % 0.62 in
03:27 73.8 °F 73.8 °F 29.93 in SSE 3.0 mph 5.0 mph 100 % 0.54 in
03:32 73.8 °F 73.8 °F 29.93 in SE 3.0 mph 5.0 mph 100 % 0.45 in
03:37 73.8 °F 73.8 °F 29.93 in South 3.0 mph 7.0 mph 100 % 0.35 in
03:42 73.8 °F 73.8 °F 29.93 in SE 1.0 mph 7.0 mph 100 % 0.28 in
03:47 73.8 °F 73.8 °F 29.93 in SSE 3.0 mph 7.0 mph 100 % 0.21 in
03:52 73.8 °F 73.8 °F 29.93 in SE 4.0 mph 8.0 mph 100 % 0.20 in
03:57 73.8 °F 73.8 °F 29.93 in SSE 3.0 mph 8.0 mph 100 % 0.19 in
04:02 73.8 °F 73.8 °F 29.93 in South 6.0 mph 8.0 mph 100 % 0.17 in
04:07 73.8 °F 73.8 °F 29.93 in SE 1.0 mph 8.0 mph 100 % 0.17 in
04:12 73.8 °F 73.8 °F 29.92 in SSE 3.0 mph 8.0 mph 100 % 0.16 in
04:17 73.6 °F 73.6 °F 29.92 in SSW 3.0 mph 8.0 mph 100 % 0.16 in
04:22 73.6 °F 73.6 °F 29.92 in SE 3.0 mph 8.0 mph 100 % 0.14 in
04:27 73.6 °F 73.6 °F 29.92 in SSE 3.0 mph 8.0 mph 100 % 0.13 in
04:32 73.6 °F 73.6 °F 29.92 in SSW 3.0 mph 8.0 mph 100 % 0.12 in
04:37 73.6 °F 73.6 °F 29.92 in SSE 3.0 mph 8.0 mph 100 % 0.12 in
04:42 73.6 °F 73.6 °F 29.92 in South 3.0 mph 5.0 mph 100 % 0.11 in
04:47 73.6 °F 73.6 °F 29.92 in SSE 1.0 mph 5.0 mph 100 % 0.10 in
04:52 73.6 °F 73.6 °F 29.91 in SSE 2.0 mph 5.0 mph 100 % 0.09 in
04:57 73.6 °F 73.6 °F 29.91 in SSE 2.0 mph 5.0 mph 100 % 0.07 in
05:02 73.6 °F 73.6 °F 29.91 in SSE 2.0 mph 5.0 mph 100 % 0.06 in
05:07 73.6 °F 73.6 °F 29.92 in SSE 2.0 mph 4.0 mph 100 % 0.04 in
05:12 73.6 °F 73.6 °F 29.92 in South 2.0 mph 3.0 mph 100 % 0.03 in
05:17 73.6 °F 73.6 °F 29.92 in South 1.0 mph 3.0 mph 100 % 0.01 in
05:22 73.6 °F 73.6 °F 29.92 in SSE 1.0 mph 4.0 mph 100 % 0.01 in
05:27 73.6 °F 73.6 °F 29.92 in Calm   5.0 mph 100 % 0.01 in
05:32 73.4 °F 73.4 °F 29.92 in SSW 1.0 mph 5.0 mph 100 % 0.01 in
05:37 73.6 °F 73.6 °F 29.92 in SSW 3.0 mph 6.0 mph 100 % 0.00 in
05:42 73.6 °F 73.6 °F 29.92 in SSW 2.0 mph 6.0 mph 100 % 0.00 in
05:47 73.6 °F 73.6 °F 29.92 in South 2.0 mph 6.0 mph 100 % 0.00 in
05:52 73.6 °F 73.6 °F 29.92 in South 3.0 mph 5.0 mph 100 % 0.00 in
05:57 73.6 °F 73.6 °F 29.92 in SE 2.0 mph 5.0 mph 100 % 0.00 in
06:02 73.4 °F 73.4 °F 29.92 in South 2.0 mph 4.0 mph 100 % 0.00 in
06:07 73.2 °F 73.2 °F 29.91 in SSE 2.0 mph 4.0 mph 100 % 0.00 in
06:12 73.2 °F 73.2 °F 29.91 in SSE 1.0 mph 4.0 mph 100 % 0.00 in
06:17 73.2 °F 73.2 °F 29.91 in South 3.0 mph 4.0 mph 100 % 0.00 in
06:22 73.0 °F 73.0 °F 29.91 in SSE 1.0 mph 3.0 mph 100 % 0.00 in
06:27 73.0 °F 73.0 °F 29.91 in SSE 1.0 mph 4.0 mph 100 % 0.00 in
06:32 73.0 °F 73.0 °F 29.91 in Calm   4.0 mph 100 % 0.00 in
06:37 73.0 °F 73.0 °F 29.91 in Calm   4.0 mph 100 % 0.00 in
06:42 72.9 °F 72.9 °F 29.91 in Calm   2.0 mph 100 % 0.00 in
06:47 72.9 °F 72.9 °F 29.92 in Calm   2.0 mph 100 % 0.00 in
06:52 72.9 °F 72.9 °F 29.92 in Calm   2.0 mph 100 % 0.00 in
06:57 72.9 °F 72.9 °F 29.92 in Calm     100 % 0.00 in
07:02 72.9 °F 72.9 °F 29.91 in Calm   1.0 mph 100 % 0.00 in
07:07 72.9 °F 72.9 °F 29.92 in Calm   1.0 mph 100 % 0.00 in
07:12 72.9 °F 72.9 °F 29.92 in Calm   1.0 mph 100 % 0.00 in
07:17 72.9 °F 72.9 °F 29.92 in Calm     100 % 0.00 in
07:22 73.0 °F 73.0 °F 29.92 in Calm     100 % 0.00 in
07:27 73.0 °F 73.0 °F 29.92 in Calm     100 % 0.00 in
07:32 73.2 °F 73.2 °F 29.92 in Calm     100 % 0.00 in
07:37 73.2 °F 73.2 °F 29.92 in Calm     100 % 0.00 in
07:42 73.2 °F 73.2 °F 29.92 in Calm     100 % 0.00 in
07:47 73.4 °F 73.4 °F 29.92 in Calm     100 % 0.00 in
07:52 73.2 °F 73.2 °F 29.92 in West 1.0 mph 2.0 mph 100 % 0.00 in
07:57 73.6 °F 73.6 °F 29.92 in Calm   2.0 mph 100 % 0.00 in
08:02 73.8 °F 73.8 °F 29.92 in SSW 1.0 mph 2.0 mph 100 % 0.00 in
08:07 73.9 °F 73.9 °F 29.93 in Calm   2.0 mph 100 % 0.00 in
08:12 73.9 °F 73.9 °F 29.93 in SSW 1.0 mph 2.0 mph 100 % 0.00 in
08:17 73.9 °F 73.9 °F 29.93 in Calm   2.0 mph 100 % 0.00 in
08:20 73.9 °F 73.9 °F 29.93 in Calm   2.0 mph 100 % 0.00 in
08:25 74.1 °F 74.1 °F 29.93 in Calm   2.0 mph 100 % 0.00 in
08:30 74.1 °F 74.1 °F 29.93 in Calm   1.0 mph 100 % 0.00 in
08:35 74.1 °F 74.1 °F 29.93 in Calm   1.0 mph 100 % 0.00 in
08:40 74.7 °F 74.7 °F 29.94 in Calm   1.0 mph 100 % 0.00 in
08:45 74.8 °F 74.8 °F 29.94 in Calm     100 % 0.00 in
08:50 75.0 °F 75.0 °F 29.94 in Calm     100 % 0.00 in
08:55 75.0 °F 75.0 °F 29.94 in Calm     100 % 0.00 in
09:00 75.4 °F 75.4 °F 29.94 in Calm     100 % 0.00 in
09:05 75.6 °F 75.6 °F 29.94 in West 1.0 mph 1.0 mph 100 % 0.00 in
09:10 75.4 °F 75.4 °F 29.94 in Calm   2.0 mph 100 % 0.00 in
09:15 75.7 °F 75.7 °F 29.94 in Calm   2.0 mph 100 % 0.00 in
09:20 75.6 °F 75.6 °F 29.94 in Calm   2.0 mph 100 % 0.00 in
09:25 75.9 °F 75.9 °F 29.94 in Calm   1.0 mph 100 % 0.00 in
09:30 75.7 °F 75.7 °F 29.95 in SE 1.0 mph 1.0 mph 100 % 0.00 in
09:35 75.7 °F 75.7 °F 29.95 in Calm   1.0 mph 100 % 0.00 in
09:40 75.7 °F 75.7 °F 29.95 in Calm   1.0 mph 100 % 0.00 in
09:45 75.7 °F 75.7 °F 29.95 in North 1.0 mph 2.0 mph 100 % 0.00 in
09:50 75.9 °F 75.9 °F 29.95 in Calm   2.0 mph 100 % 0.00 in
09:55 75.9 °F 75.9 °F 29.95 in WNW 1.0 mph 2.0 mph 100 % 0.00 in
10:00 75.9 °F 75.6 °F 29.96 in Calm   2.0 mph 99 % 0.00 in
10:05 76.1 °F 76.1 °F 29.96 in Calm   2.0 mph 100 % 0.00 in
10:10 76.3 °F 76.3 °F 29.96 in Calm   2.0 mph 100 % 0.00 in
10:15 76.5 °F 76.5 °F 29.96 in Calm   1.0 mph 100 % 0.00 in
10:20 76.5 °F 76.5 °F 29.96 in Calm   1.0 mph 100 % 0.00 in
10:25 76.5 °F 76.5 °F 29.96 in SSE 2.0 mph 2.0 mph 100 % 0.01 in
10:30 76.3 °F 75.9 °F 29.97 in South 1.0 mph 2.0 mph 99 % 0.02 in
10:35 76.6 °F 76.6 °F 29.97 in Calm   2.0 mph 100 % 0.02 in
10:40 76.5 °F 76.5 °F 29.97 in South 1.0 mph 2.0 mph 100 % 0.03 in
10:45 76.5 °F 76.1 °F 29.97 in SSE 1.0 mph 2.0 mph 99 % 0.03 in
10:50 76.6 °F 76.6 °F 29.97 in Calm   2.0 mph 100 % 0.03 in
10:55 76.6 °F 76.3 °F 29.97 in Calm   2.0 mph 99 % 0.04 in
11:00 76.5 °F 76.1 °F 29.97 in Calm   2.0 mph 99 % 0.06 in
11:05 76.3 °F 75.9 °F 29.97 in Calm   2.0 mph 99 % 0.10 in
11:10 76.3 °F 75.9 °F 29.97 in Calm   2.0 mph 99 % 0.12 in
11:15 76.3 °F 75.9 °F 29.97 in Calm   1.0 mph 99 % 0.12 in
11:16 76.3 °F 75.9 °F 29.97 in West 1.0 mph 1.0 mph 99 % 0.12 in
11:21 76.3 °F 75.9 °F 29.97 in Calm   2.0 mph 99 % 0.13 in
11:26 76.3 °F 75.9 °F 29.97 in Calm   2.0 mph 99 % 0.13 in
11:31 76.5 °F 76.1 °F 29.97 in NNW 1.0 mph 2.0 mph 99 % 0.13 in
11:36 76.8 °F 76.5 °F 29.97 in Calm   2.0 mph 99 % 0.13 in
11:41 77.4 °F 77.0 °F 29.97 in Calm   2.0 mph 99 % 0.12 in
11:46 77.7 °F 77.4 °F 29.97 in Calm   2.0 mph 99 % 0.12 in
11:48 78.1 °F 78.1 °F 29.97 in Calm   2.0 mph 100 % 0.12 in
11:53 78.6 °F 78.3 °F 29.96 in Calm   2.0 mph 99 % 0.12 in
11:58 79.3 °F 79.0 °F 29.96 in Calm   1.0 mph 99 % 0.11 in
12:03 79.2 °F 78.3 °F 29.96 in NNW 2.0 mph 2.0 mph 97 % 0.09 in
12:08 78.6 °F 77.0 °F 29.96 in WNW 3.0 mph 3.0 mph 95 % 0.04 in
12:13 78.3 °F 76.6 °F 29.96 in Calm   4.0 mph 95 % 0.03 in
12:18 78.4 °F 77.2 °F 29.96 in NW 2.0 mph 4.0 mph 96 % 0.02 in
12:23 78.8 °F 77.5 °F 29.96 in NW 1.0 mph 4.0 mph 96 % 0.02 in
12:28 79.0 °F 77.4 °F 29.96 in NW 1.0 mph 3.0 mph 95 % 0.01 in
12:33 79.5 °F 78.3 °F 29.96 in Calm   3.0 mph 96 % 0.00 in
12:38 79.5 °F 77.0 °F 29.96 in NW 2.0 mph 3.0 mph 92 % 0.00 in
12:43 80.1 °F 78.3 °F 29.96 in Calm   3.0 mph 94 % 0.00 in
12:48 80.2 °F 77.0 °F 29.96 in West 2.0 mph 3.0 mph 90 % 0.00 in
12:53 80.4 °F 77.2 °F 29.96 in West 1.0 mph 3.0 mph 90 % 0.00 in
12:58 80.6 °F 76.6 °F 29.96 in Calm   3.0 mph 88 % 0.00 in
13:03 81.0 °F 77.0 °F 29.96 in SSW 2.0 mph 3.0 mph 88 % 0.00 in
13:08 81.1 °F 77.5 °F 29.96 in Calm   4.0 mph 89 % 0.00 in
13:13 81.0 °F 77.4 °F 29.96 in Calm   4.0 mph 89 % 0.00 in
13:18 80.8 °F 77.5 °F 29.95 in Calm   4.0 mph 90 % 0.00 in
13:23 81.1 °F 77.5 °F 29.95 in SE 2.0 mph 4.0 mph 89 % 0.00 in
13:28 81.1 °F 77.5 °F 29.95 in SSE 1.0 mph 5.0 mph 89 % 0.00 in
13:33 81.3 °F 77.4 °F 29.95 in SE 2.0 mph 5.0 mph 88 % 0.00 in
13:38 81.3 °F 77.7 °F 29.95 in Calm   5.0 mph 89 % 0.00 in
13:43 81.3 °F 77.0 °F 29.95 in South 1.0 mph 4.0 mph 87 % 0.00 in
13:48 81.7 °F 78.1 °F 29.95 in Calm   4.0 mph 89 % 0.00 in
13:53 81.9 °F 77.9 °F 29.94 in South 2.0 mph 4.0 mph 88 % 0.00 in
13:58 81.9 °F 77.5 °F 29.94 in South 4.0 mph 4.0 mph 87 % 0.00 in
14:03 81.7 °F 77.0 °F 29.94 in SSW 3.0 mph 4.0 mph 86 % 0.00 in
14:08 81.9 °F 77.9 °F 29.94 in SSE 2.0 mph 4.0 mph 88 % 0.00 in
14:13 82.2 °F 78.3 °F 29.94 in Calm   4.0 mph 88 % 0.00 in
14:18 82.9 °F 79.0 °F 29.94 in SE 4.0 mph 4.0 mph 88 % 0.00 in
14:23 83.7 °F 78.6 °F 29.94 in SSW 1.0 mph 5.0 mph 85 % 0.00 in
14:29 84.2 °F 78.8 °F 29.93 in Calm   5.0 mph 84 % 0.00 in
14:34 85.1 °F 79.3 °F 29.93 in WNW 1.0 mph 5.0 mph 83 % 0.00 in
14:39 85.5 °F 78.3 °F 29.93 in South 4.0 mph 4.0 mph 79 % 0.00 in
14:44 85.3 °F 78.1 °F 29.93 in Calm   5.0 mph 79 % 0.00 in
14:49 85.1 °F 77.9 °F 29.92 in SSE 1.0 mph 5.0 mph 79 % 0.00 in
14:54 85.1 °F 77.9 °F 29.92 in South 2.0 mph 5.0 mph 79 % 0.00 in
14:59 85.6 °F 77.9 °F 29.92 in Calm   4.0 mph 78 % 0.00 in
15:04 85.8 °F 78.1 °F 29.91 in South 2.0 mph 4.0 mph 78 % 0.00 in
15:09 86.2 °F 79.0 °F 29.91 in SSW 2.0 mph 4.0 mph 79 % 0.00 in
15:14 86.4 °F 79.5 °F 29.91 in SSW 3.0 mph 4.0 mph 80 % 0.00 in
15:19 86.7 °F 78.3 °F 29.91 in Calm   5.0 mph 76 % 0.00 in
15:24 87.3 °F 79.5 °F 29.91 in NW 3.0 mph 5.0 mph 78 % 0.00 in
15:29 87.3 °F 77.9 °F 29.90 in Calm   5.0 mph 74 % 0.00 in
15:34 87.1 °F 78.6 °F 29.90 in North 4.0 mph 5.0 mph 76 % 0.00 in
15:39 86.7 °F 78.3 °F 29.90 in NW 3.0 mph 5.0 mph 76 % 0.00 in
15:44 86.4 °F 77.9 °F 29.90 in NW 1.0 mph 5.0 mph 76 % 0.00 in
15:49 85.6 °F 77.5 °F 29.90 in NW 1.0 mph 5.0 mph 77 % 0.00 in
15:54 84.9 °F 77.7 °F 29.90 in NNW 4.0 mph 5.0 mph 79 % 0.00 in
15:59 84.6 °F 78.4 °F 29.90 in NW 3.0 mph 7.0 mph 82 % 0.00 in
16:04 84.4 °F 78.3 °F 29.90 in NNW 3.0 mph 7.0 mph 82 % 0.00 in
16:09 84.4 °F 77.9 °F 29.90 in Calm   7.0 mph 81 % 0.00 in
16:14 84.6 °F 78.1 °F 29.90 in NW 1.0 mph 5.0 mph 81 % 0.00 in
16:19 84.4 °F 77.5 °F 29.90 in NW 5.0 mph 5.0 mph 80 % 0.00 in
16:24 84.2 °F 77.7 °F 29.89 in NW 3.0 mph 7.0 mph 81 % 0.00 in
16:29 84.4 °F 77.5 °F 29.89 in NW 4.0 mph 8.0 mph 80 % 0.00 in
16:34 84.0 °F 77.5 °F 29.89 in NW 4.0 mph 8.0 mph 81 % 0.00 in
16:39 84.0 °F 77.9 °F 29.89 in NW 2.0 mph 8.0 mph 82 % 0.00 in
16:44 84.6 °F 78.4 °F 29.89 in NW 2.0 mph 7.0 mph 82 % 0.00 in
16:49 85.1 °F 78.3 °F 29.88 in WNW 1.0 mph 7.0 mph 80 % 0.00 in
16:54 85.3 °F 76.5 °F 29.89 in NW 6.0 mph 7.0 mph 75 % 0.00 in
16:59 84.7 °F 77.2 °F 29.89 in NNW 2.0 mph 10.0 mph 78 % 0.00 in
17:04 84.7 °F 77.2 °F 29.89 in NW 3.0 mph 10.0 mph 78 % 0.00 in
17:09 84.6 °F 77.4 °F 29.89 in NNW 3.0 mph 10.0 mph 79 % 0.00 in
17:14 84.7 °F 77.5 °F 29.89 in NW 2.0 mph 6.0 mph 79 % 0.00 in
17:19 85.3 °F 77.7 °F 29.89 in NW 1.0 mph 6.0 mph 78 % 0.00 in
17:24 85.5 °F 77.7 °F 29.89 in West 1.0 mph 6.0 mph 78 % 0.00 in
17:29 85.5 °F 77.4 °F 29.89 in WNW 3.0 mph 6.0 mph 77 % 0.00 in
17:34 85.3 °F 77.2 °F 29.89 in NW 2.0 mph 5.0 mph 77 % 0.00 in
17:39 85.1 °F 77.5 °F 29.89 in WNW 3.0 mph 4.0 mph 78 % 0.00 in
17:44 84.7 °F 77.2 °F 29.89 in NW 1.0 mph 4.0 mph 78 % 0.00 in
17:49 84.6 °F 77.4 °F 29.89 in West 1.0 mph 5.0 mph 79 % 0.00 in
17:54 84.6 °F 77.4 °F 29.88 in NNW 3.0 mph 5.0 mph 79 % 0.00 in
17:59 84.4 °F 77.2 °F 29.89 in NNW 2.0 mph 5.0 mph 79 % 0.00 in
18:04 84.6 °F 77.4 °F 29.89 in WNW 3.0 mph 5.0 mph 79 % 0.00 in
18:09 84.9 °F 77.4 °F 29.88 in NW 5.0 mph 6.0 mph 78 % 0.00 in
18:14 84.9 °F 76.8 °F 29.89 in NW 2.0 mph 7.0 mph 77 % 0.00 in
18:19 84.7 °F 77.2 °F 29.89 in NW 3.0 mph 8.0 mph 78 % 0.00 in
18:24 84.9 °F 77.7 °F 29.88 in Calm   8.0 mph 79 % 0.00 in
18:29 85.5 °F 77.0 °F 29.88 in NNW 2.0 mph 8.0 mph 76 % 0.00 in
18:34 85.3 °F 76.8 °F 29.88 in WNW 3.0 mph 7.0 mph 76 % 0.00 in
18:39 85.1 °F 76.6 °F 29.88 in NNW 3.0 mph 6.0 mph 76 % 0.00 in
18:44 84.7 °F 76.6 °F 29.88 in NW 2.0 mph 7.0 mph 77 % 0.00 in
18:49 84.9 °F 76.8 °F 29.88 in NW 2.0 mph 7.0 mph 77 % 0.00 in
18:54 84.9 °F 76.8 °F 29.88 in NW 3.0 mph 7.0 mph 77 % 0.00 in
18:59 84.7 °F 76.6 °F 29.88 in NW 5.0 mph 6.0 mph 77 % 0.00 in
19:04 84.7 °F 77.2 °F 29.88 in NW 2.0 mph 6.0 mph 78 % 0.00 in
19:09 84.7 °F 77.2 °F 29.88 in NW 3.0 mph 7.0 mph 78 % 0.00 in
19:14 84.9 °F 77.4 °F 29.88 in NNW 3.0 mph 7.0 mph 78 % 0.00 in
19:19 84.7 °F 77.2 °F 29.88 in NW 2.0 mph 7.0 mph 78 % 0.00 in
19:24 84.6 °F 77.4 °F 29.88 in Calm   6.0 mph 79 % 0.00 in
19:29 84.2 °F 77.0 °F 29.89 in NNW 3.0 mph 6.0 mph 79 % 0.00 in
19:34 84.0 °F 77.2 °F 29.89 in NW 2.0 mph 6.0 mph 80 % 0.00 in
19:39 84.0 °F 77.2 °F 29.89 in Calm   6.0 mph 80 % 0.00 in
19:44 83.8 °F 77.0 °F 29.89 in NNW 3.0 mph 5.0 mph 80 % 0.00 in
19:49 83.8 °F 77.7 °F 29.90 in Calm   4.0 mph 82 % 0.00 in
19:54 83.5 °F 77.4 °F 29.90 in NNW 4.0 mph 4.0 mph 82 % 0.00 in
19:59 83.1 °F 77.4 °F 29.90 in North 1.0 mph 6.0 mph 83 % 0.00 in
20:04 82.8 °F 77.4 °F 29.90 in North 1.0 mph 6.0 mph 84 % 0.00 in
20:09 82.4 °F 77.0 °F 29.90 in Calm   6.0 mph 84 % 0.00 in
20:15 82.0 °F 77.0 °F 29.90 in NNW 1.0 mph 5.0 mph 85 % 0.00 in
20:20 81.9 °F 77.2 °F 29.91 in Calm   5.0 mph 86 % 0.00 in
20:25 81.7 °F 77.0 °F 29.91 in NW 1.0 mph 4.0 mph 86 % 0.00 in
20:30 81.5 °F 77.2 °F 29.90 in WNW 1.0 mph 4.0 mph 87 % 0.00 in
20:35 81.3 °F 77.0 °F 29.90 in Calm   2.0 mph 87 % 0.00 in
20:40 81.1 °F 76.8 °F 29.91 in Calm   3.0 mph 87 % 0.00 in
20:45 81.0 °F 77.0 °F 29.91 in Calm   3.0 mph 88 % 0.00 in
20:50 81.0 °F 77.0 °F 29.91 in Calm   3.0 mph 88 % 0.00 in
20:55 80.8 °F 77.2 °F 29.91 in Calm   2.0 mph 89 % 0.00 in
21:00 80.4 °F 76.8 °F 29.92 in NE 1.0 mph 3.0 mph 89 % 0.00 in
21:01 80.6 °F 77.0 °F 29.92 in Calm   3.0 mph 89 % 0.00 in
21:06 80.4 °F 77.2 °F 29.92 in East 1.0 mph 3.0 mph 90 % 0.00 in
21:11 80.2 °F 77.0 °F 29.92 in Calm   3.0 mph 90 % 0.00 in
21:16 80.1 °F 76.8 °F 29.92 in Calm   3.0 mph 90 % 0.00 in
21:21 80.1 °F 76.8 °F 29.93 in Calm   3.0 mph 90 % 0.00 in
21:26 79.9 °F 76.6 °F 29.93 in Calm   3.0 mph 90 % 0.00 in
21:31 79.9 °F 76.6 °F 29.92 in Calm   2.0 mph 90 % 0.00 in
21:36 79.7 °F 76.8 °F 29.93 in Calm   2.0 mph 91 % 0.00 in
21:41 79.5 °F 76.6 °F 29.93 in Calm   1.0 mph 91 % 0.00 in
21:46 79.5 °F 77.0 °F 29.93 in NW 1.0 mph 2.0 mph 92 % 0.00 in
21:51 79.3 °F 76.8 °F 29.93 in ENE 1.0 mph 2.0 mph 92 % 0.00 in
21:56 79.3 °F 76.8 °F 29.93 in Calm   2.0 mph 92 % 0.00 in
22:01 79.2 °F 76.6 °F 29.93 in Calm   2.0 mph 92 % 0.00 in
22:06 79.0 °F 76.8 °F 29.93 in NNW 1.0 mph 5.0 mph 93 % 0.00 in
22:11 79.0 °F 76.8 °F 29.93 in Calm   5.0 mph 93 % 0.00 in
22:16 78.8 °F 76.6 °F 29.93 in Calm   5.0 mph 93 % 0.00 in
22:18 78.6 °F 76.5 °F 29.93 in NNW 1.0 mph 5.0 mph 93 % 0.00 in
22:21 78.6 °F 76.5 °F 29.93 in Calm   3.0 mph 93 % 0.00 in
22:22 78.6 °F 76.5 °F 29.93 in Calm   3.0 mph 93 % 0.00 in
22:24 78.6 °F 76.5 °F 29.93 in Calm   3.0 mph 93 % 0.00 in
22:27 78.4 °F 76.3 °F 29.93 in Calm   3.0 mph 93 % 0.00 in
22:32 78.4 °F 76.3 °F 29.93 in NE 1.0 mph 2.0 mph 93 % 0.00 in
22:37 78.3 °F 76.1 °F 29.93 in Calm   2.0 mph 93 % 0.00 in
22:42 78.3 °F 76.5 °F 29.93 in North 1.0 mph 2.0 mph 94 % 0.00 in
22:47 78.3 °F 76.5 °F 29.94 in NE 2.0 mph 5.0 mph 94 % 0.00 in
22:52 78.1 °F 76.3 °F 29.94 in NW 1.0 mph 5.0 mph 94 % 0.00 in
22:57 78.1 °F 76.3 °F 29.94 in East 2.0 mph 5.0 mph 94 % 0.00 in
23:02 77.9 °F 76.1 °F 29.94 in Calm   5.0 mph 94 % 0.00 in
23:07 77.9 °F 76.3 °F 29.95 in East 1.0 mph 4.0 mph 95 % 0.00 in
23:12 77.7 °F 76.1 °F 29.95 in Calm   3.0 mph 95 % 0.00 in
23:17 77.7 °F 76.1 °F 29.95 in Calm   3.0 mph 95 % 0.00 in
23:22 77.7 °F 76.1 °F 29.94 in Calm   3.0 mph 95 % 0.00 in
23:27 77.7 °F 76.1 °F 29.94 in Calm   3.0 mph 95 % 0.00 in
23:32 77.7 °F 76.1 °F 29.95 in North 1.0 mph 2.0 mph 95 % 0.00 in
23:37 77.7 °F 76.1 °F 29.95 in NW 1.0 mph 3.0 mph 95 % 0.00 in
23:42 77.7 °F 76.1 °F 29.95 in Calm   3.0 mph 95 % 0.00 in
23:47 77.7 °F 76.1 °F 29.96 in Calm   3.0 mph 95 % 0.00 in
23:52 77.7 °F 76.1 °F 29.95 in ESE 1.0 mph 3.0 mph 95 % 0.00 in
23:57 77.7 °F 76.1 °F 29.96 in Calm   3.0 mph 95 % 0.00 in
Spring, Texas: Villages of Bridgestone
Compliments of Weather Underground - 2.75 mb

Script developed by  Jim McMurry - jmcmurry@mwt.net Adapted for the template by  Wim van der Kuil - Leuven-Template.eu

You find our weather info also at:

UK Metoffice

WeatherCloud

Weather Underground

Mid-South Weather Network

AWEKAS

Citizen Weather Observer Program (CWOP)

HAMweather, WeatherForYou, PWS Weather

Equipment we use:

Weather-station
Davis Vantage Vue

Weather-program
Meteohub

Weather-server
Debian 7.9 x86 (Guest)

Provider
DreamHost

Davis Vantage Vue

Meteohub

Debian 7.9 x86 (Guest)

DreamHost